Terminal Aerodrome Forecast
Issued by NWS

Home | Current Version | Previous Version | Text Only | Print | Product List | Glossary On
Versions: 1 2 3 4 5 6 7 8 9 10 11 12 13 14 15 16 17 18 19 20 21 22 23 24 25 26 27 28 29 30 31 32 33 34 35 36 37 38 39 40
000
FTUS45 KFGZ 202320
TAFPGA
TAF
KPGA 202320Z 2100/2124 VRB06KT P6SM SCT250 PROB30 2114/2118
      22013G21KT 5SM -SHRASN BKN040
     FM211800 25019G27KT P6SM SCT035 PROB30 2118/2124 5SM -SHSNRA
      BKN035=

USA.gov is the U.S. government's official web portal to all federal, state and local government web resources and services.